createdAt,value
2022-08-14T00:00:14.031Z,18.80
2022-08-14T00:02:44.306Z,18.70
2022-08-14T00:05:16.583Z,18.60
2022-08-14T00:07:43.921Z,18.70
2022-08-14T00:10:49.621Z,18.70
2022-08-14T00:13:06.852Z,18.70
2022-08-14T00:15:43.494Z,18.70
2022-08-14T00:18:14.510Z,18.70
2022-08-14T00:20:58.210Z,18.80
2022-08-14T00:23:26.286Z,18.80
2022-08-14T00:26:05.961Z,18.80
2022-08-14T00:28:36.026Z,18.70
2022-08-14T00:31:06.558Z,18.70
2022-08-14T00:33:50.430Z,18.60
2022-08-14T00:36:37.431Z,18.50
2022-08-14T00:39:09.677Z,18.40
2022-08-14T00:41:38.859Z,18.30
2022-08-14T00:44:06.636Z,18.30
2022-08-14T00:46:33.785Z,18.30
2022-08-14T00:49:02.127Z,18.30
2022-08-14T00:51:34.726Z,18.30
2022-08-14T00:54:11.062Z,18.20
2022-08-14T00:56:50.448Z,18.20
2022-08-14T00:59:17.600Z,18.30
2022-08-14T01:01:45.516Z,18.20
2022-08-14T01:04:51.352Z,18.20
2022-08-14T01:07:04.925Z,18.10
2022-08-14T01:09:36.622Z,18.10
2022-08-14T01:12:04.960Z,18.00
2022-08-14T01:14:32.661Z,18.10
2022-08-14T01:17:04.065Z,18.10
2022-08-14T01:19:49.575Z,18.10
2022-08-14T01:22:19.008Z,18.20
2022-08-14T01:24:47.010Z,18.20
2022-08-14T01:27:24.271Z,18.20
2022-08-14T01:30:00.638Z,18.10
2022-08-14T01:32:37.377Z,18.00
2022-08-14T01:35:18.571Z,17.90
2022-08-14T01:37:57.689Z,17.90
2022-08-14T01:40:36.710Z,17.80
2022-08-14T01:43:18.931Z,17.80
2022-08-14T01:45:57.686Z,17.70
2022-08-14T01:48:33.801Z,17.70
2022-08-14T01:51:20.212Z,17.60
2022-08-14T01:53:55.277Z,17.70
2022-08-14T01:56:41.083Z,17.60
2022-08-14T01:59:20.459Z,17.60
2022-08-14T02:01:56.787Z,17.60
2022-08-14T02:04:54.988Z,17.50
2022-08-14T02:07:34.534Z,17.50
2022-08-14T02:10:13.048Z,17.50
2022-08-14T02:12:43.425Z,17.50
2022-08-14T02:15:11.488Z,17.50
2022-08-14T02:17:38.982Z,17.50
2022-08-14T02:20:08.674Z,17.60
2022-08-14T02:22:47.784Z,17.50
2022-08-14T02:25:16.634Z,17.50
2022-08-14T02:28:24.683Z,17.50
2022-08-14T02:30:33.880Z,17.50
2022-08-14T02:33:01.325Z,17.60
2022-08-14T02:35:32.754Z,17.60
2022-08-14T02:38:00.909Z,17.60
2022-08-14T02:40:33.797Z,17.50
2022-08-14T02:43:03.872Z,17.60
2022-08-14T02:45:38.625Z,17.60
2022-08-14T02:49:01.437Z,17.60
2022-08-14T02:51:01.430Z,17.70
2022-08-14T02:53:31.138Z,17.60
2022-08-14T02:56:02.596Z,17.50
2022-08-14T02:58:32.707Z,17.40
2022-08-14T03:01:00.304Z,17.40
2022-08-14T03:03:31.601Z,17.50
2022-08-14T03:06:00.273Z,17.50
2022-08-14T03:08:31.848Z,17.50
2022-08-14T03:11:07.647Z,17.60
2022-08-14T03:13:44.067Z,17.60
2022-08-14T03:16:19.856Z,17.70
2022-08-14T03:18:52.620Z,17.70
2022-08-14T03:21:23.713Z,17.80
2022-08-14T03:24:00.550Z,17.80
2022-08-14T03:26:29.564Z,17.90
2022-08-14T03:29:00.955Z,17.80
2022-08-14T03:31:29.446Z,17.80
2022-08-14T03:34:00.266Z,17.80
2022-08-14T03:37:51.989Z,17.80
2022-08-14T03:39:22.912Z,17.80
2022-08-14T03:41:55.571Z,17.80
2022-08-14T03:45:18.747Z,17.80
2022-08-14T03:47:12.290Z,17.80
2022-08-14T03:49:47.660Z,17.70
2022-08-14T03:52:38.412Z,17.60
2022-08-14T03:55:09.359Z,17.60
2022-08-14T03:57:37.342Z,17.50
2022-08-14T04:00:13.545Z,17.50
2022-08-14T04:02:47.081Z,17.30
2022-08-14T04:05:16.356Z,17.40
2022-08-14T04:07:49.948Z,17.40
2022-08-14T04:10:32.958Z,17.30
2022-08-14T04:13:06.258Z,17.30
2022-08-14T04:15:56.761Z,17.40
2022-08-14T04:18:22.402Z,17.50
2022-08-14T04:20:54.710Z,17.60
2022-08-14T04:23:29.796Z,17.60
2022-08-14T04:26:14.474Z,17.70
2022-08-14T04:29:07.076Z,17.80
2022-08-14T04:32:57.750Z,17.80
2022-08-14T04:34:27.134Z,17.80
2022-08-14T04:37:13.767Z,17.80
2022-08-14T04:40:08.762Z,17.80
2022-08-14T04:42:55.299Z,17.80
2022-08-14T04:45:24.402Z,17.80
2022-08-14T04:48:12.544Z,18.00
2022-08-14T04:50:54.048Z,18.30
2022-08-14T04:53:34.815Z,18.40
2022-08-14T04:56:05.914Z,18.40
2022-08-14T04:58:38.974Z,18.50
2022-08-14T05:01:21.489Z,18.70
2022-08-14T05:03:50.599Z,18.70
2022-08-14T05:06:37.964Z,18.80
2022-08-14T05:09:06.740Z,18.90
2022-08-14T05:11:36.529Z,19.00
2022-08-14T05:14:34.084Z,19.20
2022-08-14T05:16:52.201Z,19.40
2022-08-14T05:19:29.515Z,19.60
2022-08-14T05:22:16.571Z,19.80
2022-08-14T05:24:50.486Z,20.00
2022-08-14T05:27:22.942Z,20.30
2022-08-14T05:29:56.591Z,20.40
2022-08-14T05:32:27.167Z,20.60
2022-08-14T05:34:59.640Z,20.70
2022-08-14T05:37:29.716Z,21.00
2022-08-14T05:39:58.239Z,21.10
2022-08-14T05:42:29.497Z,21.20
2022-08-14T05:44:59.826Z,21.00
2022-08-14T05:47:28.964Z,20.90
2022-08-14T05:50:09.713Z,21.10
2022-08-14T05:52:44.710Z,21.10
2022-08-14T05:55:12.146Z,21.20
2022-08-14T05:57:50.631Z,21.30
2022-08-14T06:00:24.724Z,21.40
2022-08-14T06:03:00.867Z,21.80
2022-08-14T06:05:35.142Z,22.00
2022-08-14T06:08:08.452Z,21.90
2022-08-14T06:10:50.038Z,21.80
2022-08-14T06:13:18.636Z,21.80
2022-08-14T06:15:47.868Z,21.80
2022-08-14T06:18:17.568Z,22.10
2022-08-14T06:20:45.159Z,22.10
2022-08-14T06:23:13.426Z,22.50
2022-08-14T06:25:41.701Z,22.60
2022-08-14T06:28:27.495Z,22.80
2022-08-14T06:30:55.904Z,23.00
2022-08-14T06:33:23.069Z,23.10
2022-08-14T06:36:11.387Z,23.20
2022-08-14T06:38:38.482Z,23.30
2022-08-14T06:41:05.773Z,23.50
2022-08-14T06:43:37.971Z,23.60
2022-08-14T06:46:17.461Z,23.80
2022-08-14T06:48:50.434Z,23.10
2022-08-14T06:51:17.373Z,23.00
2022-08-14T06:53:44.363Z,23.10
2022-08-14T06:56:14.946Z,23.50
2022-08-14T06:58:41.890Z,23.90
2022-08-14T07:01:28.166Z,24.30
2022-08-14T07:04:23.737Z,24.40
2022-08-14T07:06:54.823Z,24.50
2022-08-14T07:09:28.255Z,24.80
2022-08-14T07:12:34.828Z,24.50
2022-08-14T07:15:00.962Z,24.20
2022-08-14T07:17:28.889Z,23.90
2022-08-14T07:19:59.173Z,23.80
2022-08-14T07:22:32.953Z,24.20
2022-08-14T07:25:13.820Z,24.70
2022-08-14T07:27:42.894Z,25.20
2022-08-14T07:30:34.403Z,25.50
2022-08-14T07:32:58.458Z,25.30
2022-08-14T07:35:30.237Z,24.80
2022-08-14T07:37:57.553Z,25.00
2022-08-14T07:40:27.630Z,25.10
2022-08-14T07:42:57.330Z,25.10
2022-08-14T07:45:42.118Z,25.10
2022-08-14T07:48:09.540Z,25.00
2022-08-14T07:50:45.023Z,25.00
2022-08-14T07:53:14.412Z,25.00
2022-08-14T07:55:43.059Z,25.10
2022-08-14T07:58:30.655Z,25.10
2022-08-14T08:00:58.210Z,25.10
2022-08-14T08:03:30.387Z,24.80
2022-08-14T08:05:57.811Z,24.70
2022-08-14T08:08:26.469Z,24.50
2022-08-14T08:11:02.879Z,24.50
2022-08-14T08:13:34.667Z,24.80
2022-08-14T08:16:08.256Z,25.00
2022-08-14T08:18:36.051Z,25.00
2022-08-14T08:21:03.500Z,24.90
2022-08-14T08:23:40.718Z,24.90
2022-08-14T08:26:18.866Z,25.20
2022-08-14T08:28:56.852Z,25.30
2022-08-14T08:31:25.306Z,25.40
2022-08-14T08:34:04.458Z,25.40
2022-08-14T08:36:41.910Z,25.30
2022-08-14T08:39:17.261Z,25.30
2022-08-14T08:41:53.651Z,25.40
2022-08-14T08:44:33.055Z,25.40
2022-08-14T08:47:06.280Z,25.50
2022-08-14T08:49:52.868Z,25.70
2022-08-14T08:52:31.685Z,25.70
2022-08-14T08:55:01.073Z,25.70
2022-08-14T08:57:35.966Z,25.70
2022-08-14T09:00:24.166Z,25.50
2022-08-14T09:02:58.310Z,25.90
2022-08-14T09:05:26.358Z,26.10
2022-08-14T09:07:56.481Z,26.50
2022-08-14T09:10:23.986Z,26.60
2022-08-14T09:12:56.236Z,26.70
2022-08-14T09:15:24.218Z,27.00
2022-08-14T09:17:52.793Z,27.30
2022-08-14T09:20:26.394Z,27.50
2022-08-14T09:22:58.977Z,27.40
2022-08-14T09:26:00.687Z,27.60
2022-08-14T09:28:14.471Z,27.00
2022-08-14T09:30:45.686Z,27.10
2022-08-14T09:33:43.052Z,27.20
2022-08-14T09:36:30.379Z,27.70
2022-08-14T09:39:37.943Z,28.40
2022-08-14T09:42:31.751Z,28.70
2022-08-14T09:45:24.077Z,28.70
2022-08-14T09:47:54.251Z,28.50
2022-08-14T09:50:29.746Z,28.40
2022-08-14T09:53:05.899Z,28.80
2022-08-14T09:55:45.869Z,29.00
2022-08-14T09:58:19.867Z,28.60
2022-08-14T10:00:54.426Z,28.10
2022-08-14T10:03:36.462Z,28.20
2022-08-14T10:06:29.698Z,28.60
2022-08-14T10:09:06.465Z,28.90
2022-08-14T10:11:43.354Z,29.30
2022-08-14T10:14:29.476Z,29.30
2022-08-14T10:17:05.397Z,29.40
2022-08-14T10:19:35.579Z,29.30
2022-08-14T10:23:11.783Z,29.70
2022-08-14T10:25:00.030Z,30.30
2022-08-14T10:27:29.071Z,30.20
2022-08-14T10:30:01.411Z,30.20
2022-08-14T10:32:40.341Z,30.10
2022-08-14T10:35:20.232Z,30.40
2022-08-14T10:37:52.219Z,30.50
2022-08-14T10:40:37.657Z,30.40
2022-08-14T10:43:25.814Z,30.50
2022-08-14T10:45:59.836Z,30.90
2022-08-14T10:48:45.770Z,31.20
2022-08-14T10:51:24.143Z,31.30
2022-08-14T10:53:56.802Z,31.20
2022-08-14T10:56:35.671Z,30.90
2022-08-14T10:59:08.663Z,31.00
2022-08-14T11:01:41.226Z,31.20
2022-08-14T11:04:25.836Z,31.00
2022-08-14T11:06:54.302Z,31.10
2022-08-14T11:09:21.478Z,31.30
2022-08-14T11:11:56.241Z,30.90
2022-08-14T11:14:26.514Z,31.00
2022-08-14T11:16:54.366Z,30.90
2022-08-14T11:19:25.083Z,30.70
2022-08-14T11:21:55.496Z,30.60
2022-08-14T11:24:54.831Z,30.40
2022-08-14T11:27:19.266Z,30.70
2022-08-14T11:29:52.824Z,31.00
2022-08-14T11:32:31.113Z,31.40
2022-08-14T11:35:03.437Z,31.00
2022-08-14T11:37:40.696Z,31.20
2022-08-14T11:40:16.525Z,31.50
2022-08-14T11:42:59.670Z,32.30
2022-08-14T11:45:36.980Z,32.40
2022-08-14T11:49:01.658Z,32.50
2022-08-14T11:51:23.665Z,32.60
2022-08-14T11:54:13.769Z,33.00
2022-08-14T11:56:50.758Z,33.50
2022-08-14T11:59:20.050Z,33.20
2022-08-14T12:01:54.982Z,33.00
2022-08-14T12:04:33.437Z,32.90
2022-08-14T12:07:01.668Z,32.70
2022-08-14T12:09:37.158Z,32.70
2022-08-14T12:12:35.544Z,31.90
2022-08-14T12:15:05.490Z,31.90
2022-08-14T12:17:47.565Z,31.50
2022-08-14T12:20:29.898Z,31.30
2022-08-14T12:23:02.707Z,31.00
2022-08-14T12:25:34.870Z,30.30
2022-08-14T12:28:10.233Z,30.00
2022-08-14T12:30:56.600Z,30.20
2022-08-14T12:33:30.848Z,30.10
2022-08-14T12:36:04.399Z,30.30
2022-08-14T12:38:43.512Z,30.40
2022-08-14T12:41:24.078Z,30.70
2022-08-14T12:43:55.643Z,31.50
2022-08-14T12:46:33.800Z,31.60
2022-08-14T12:49:10.163Z,32.10
2022-08-14T12:51:38.117Z,32.30
2022-08-14T12:54:28.586Z,32.50
2022-08-14T12:57:09.232Z,32.50
2022-08-14T12:59:43.100Z,32.10
2022-08-14T13:02:25.509Z,31.90
2022-08-14T13:04:58.076Z,32.10
2022-08-14T13:07:32.933Z,32.10
2022-08-14T13:10:45.912Z,32.00
2022-08-14T13:13:13.092Z,31.70
2022-08-14T13:15:47.985Z,31.80
2022-08-14T13:18:26.471Z,32.60
2022-08-14T13:21:01.046Z,32.30
2022-08-14T13:23:36.171Z,33.10
2022-08-14T13:26:03.890Z,33.40
2022-08-14T13:28:41.238Z,33.40
2022-08-14T13:31:24.140Z,33.70
2022-08-14T13:33:57.773Z,34.50
2022-08-14T13:36:54.414Z,34.70
2022-08-14T13:39:18.997Z,36.10
2022-08-14T13:41:47.843Z,37.50
2022-08-14T13:44:27.003Z,39.30
2022-08-14T13:46:53.917Z,40.60
2022-08-14T13:49:21.084Z,39.60
2022-08-14T13:51:53.241Z,38.30
2022-08-14T13:54:21.195Z,39.70
2022-08-14T13:56:49.912Z,40.90
2022-08-14T13:59:20.407Z,41.80
2022-08-14T14:02:08.712Z,42.00
2022-08-14T14:04:41.644Z,41.30
2022-08-14T14:07:16.416Z,42.40
2022-08-14T14:09:53.011Z,43.90
2022-08-14T14:12:37.482Z,44.50
2022-08-14T14:15:11.257Z,44.70
2022-08-14T14:17:39.586Z,44.30
2022-08-14T14:20:34.613Z,43.70
2022-08-14T14:23:02.402Z,44.00
2022-08-14T14:25:45.692Z,44.20
2022-08-14T14:28:16.467Z,44.40
2022-08-14T14:30:53.042Z,43.30
2022-08-14T14:33:45.116Z,41.80
2022-08-14T14:36:14.076Z,39.70
2022-08-14T14:38:44.255Z,37.40
2022-08-14T14:41:15.250Z,36.20
2022-08-14T14:43:47.051Z,35.90
2022-08-14T14:46:21.358Z,35.70
2022-08-14T14:48:53.967Z,35.10
2022-08-14T14:51:22.256Z,34.40
2022-08-14T14:53:49.433Z,33.80
2022-08-14T14:56:50.337Z,33.30
2022-08-14T14:59:04.632Z,32.90
2022-08-14T15:01:35.582Z,32.40
2022-08-14T15:04:08.031Z,32.30
2022-08-14T15:06:47.927Z,32.30
2022-08-14T15:09:17.775Z,32.30
2022-08-14T15:11:47.023Z,31.90
2022-08-14T15:14:56.030Z,32.00
2022-08-14T15:17:02.365Z,32.20
2022-08-14T15:19:29.691Z,31.90
2022-08-14T15:21:58.143Z,31.90
2022-08-14T15:24:27.061Z,32.00
2022-08-14T15:26:58.831Z,31.90
2022-08-14T15:29:27.182Z,31.90
2022-08-14T15:31:54.546Z,31.80
2022-08-14T15:34:43.998Z,31.80
2022-08-14T15:37:12.682Z,31.80
2022-08-14T15:39:44.319Z,32.00
2022-08-14T15:42:14.838Z,32.80
2022-08-14T15:44:57.998Z,34.40
2022-08-14T15:47:30.778Z,35.80
2022-08-14T15:50:04.969Z,36.40
2022-08-14T15:52:37.476Z,35.50
2022-08-14T15:55:15.389Z,36.60
2022-08-14T15:58:02.004Z,35.80
2022-08-14T16:00:53.915Z,35.30
2022-08-14T16:03:27.080Z,34.70
2022-08-14T16:06:01.878Z,34.60
2022-08-14T16:08:30.723Z,34.60
2022-08-14T16:11:04.039Z,34.50
2022-08-14T16:13:39.326Z,34.30
2022-08-14T16:16:47.021Z,34.00
2022-08-14T16:19:09.549Z,33.60
2022-08-14T16:21:40.586Z,33.10
2022-08-14T16:24:28.065Z,32.70
2022-08-14T16:27:00.922Z,32.60
2022-08-14T16:29:30.548Z,32.40
2022-08-14T16:32:32.821Z,32.30
2022-08-14T16:34:54.856Z,32.40
2022-08-14T16:37:31.170Z,32.10
2022-08-14T16:40:03.307Z,32.10
2022-08-14T16:42:39.153Z,31.70
2022-08-14T16:45:26.108Z,31.30
2022-08-14T16:47:55.113Z,30.60
2022-08-14T16:50:40.509Z,30.60
2022-08-14T16:53:10.511Z,30.70
2022-08-14T16:55:51.113Z,30.80
2022-08-14T16:58:27.199Z,30.90
2022-08-14T17:01:22.574Z,30.80
2022-08-14T17:03:58.353Z,30.70
2022-08-14T17:06:47.088Z,31.30
2022-08-14T17:09:37.029Z,32.20
2022-08-14T17:12:28.602Z,32.00
2022-08-14T17:15:15.163Z,31.20
2022-08-14T17:17:49.852Z,30.90
2022-08-14T17:20:54.052Z,31.00
2022-08-14T17:23:12.239Z,31.00
2022-08-14T17:25:51.146Z,31.00
2022-08-14T17:28:51.362Z,30.80
2022-08-14T17:31:08.485Z,29.90
2022-08-14T17:33:44.243Z,29.80
2022-08-14T17:39:17.280Z,31.10
2022-08-14T17:42:03.119Z,31.30
2022-08-14T17:44:45.410Z,30.50
2022-08-14T17:47:14.831Z,29.70
2022-08-14T17:49:51.867Z,29.30
2022-08-14T17:52:34.598Z,29.10
2022-08-14T17:55:12.616Z,29.00
2022-08-14T17:57:58.832Z,28.70
2022-08-14T18:00:26.372Z,28.30
2022-08-14T18:02:54.570Z,28.00
2022-08-14T18:06:06.937Z,27.80
2022-08-14T18:08:34.473Z,27.60
2022-08-14T18:11:00.215Z,27.50
2022-08-14T18:13:50.986Z,27.30
2022-08-14T18:16:20.314Z,27.10
2022-08-14T18:18:51.410Z,26.90
2022-08-14T18:21:40.566Z,26.80
2022-08-14T18:24:20.295Z,26.70
2022-08-14T18:27:17.404Z,26.60
2022-08-14T18:29:58.841Z,26.50
2022-08-14T18:32:32.025Z,26.30
2022-08-14T18:35:00.126Z,26.20
2022-08-14T18:37:27.642Z,26.00
2022-08-14T18:40:17.850Z,25.90
2022-08-14T18:42:47.826Z,25.60
2022-08-14T18:45:28.505Z,25.60
2022-08-14T18:48:18.726Z,25.40
2022-08-14T18:50:59.751Z,25.30
2022-08-14T18:53:34.272Z,25.10
2022-08-14T18:56:09.676Z,25.00
2022-08-14T18:58:56.900Z,24.90
2022-08-14T19:01:29.858Z,24.90
2022-08-14T19:03:58.937Z,24.70
2022-08-14T19:06:41.383Z,24.60
2022-08-14T19:09:08.790Z,24.50
2022-08-14T19:11:37.017Z,24.40
2022-08-14T19:14:05.733Z,24.30
2022-08-14T19:16:42.974Z,24.30
2022-08-14T19:19:12.907Z,24.30
2022-08-14T19:22:12.397Z,24.20
2022-08-14T19:24:44.050Z,24.10
2022-08-14T19:27:24.041Z,24.10
2022-08-14T19:30:20.081Z,24.00
2022-08-14T19:32:56.111Z,24.00
2022-08-14T19:35:55.189Z,23.90
2022-08-14T19:38:53.757Z,23.80
2022-08-14T19:41:29.716Z,23.80
2022-08-14T19:44:31.802Z,23.80
2022-08-14T19:47:04.846Z,23.70
2022-08-14T19:50:08.782Z,23.60
2022-08-14T19:52:35.232Z,23.50
2022-08-14T19:55:19.337Z,23.40
2022-08-14T19:57:52.424Z,23.40
2022-08-14T20:00:29.263Z,23.30
2022-08-14T20:03:10.491Z,23.30
2022-08-14T20:05:43.108Z,23.20
2022-08-14T20:09:06.468Z,23.00
2022-08-14T20:11:14.297Z,23.00
2022-08-14T20:13:59.864Z,22.90
2022-08-14T20:16:52.021Z,22.90
2022-08-14T20:19:37.539Z,22.90
2022-08-14T20:22:36.513Z,22.80
2022-08-14T20:24:54.632Z,22.80
2022-08-14T20:27:33.251Z,22.70
2022-08-14T20:30:29.134Z,22.70
2022-08-14T20:32:51.325Z,22.70
2022-08-14T20:35:35.626Z,22.70
2022-08-14T20:38:31.980Z,22.70
2022-08-14T20:41:06.530Z,22.70
2022-08-14T20:43:56.061Z,22.60
2022-08-14T20:46:38.312Z,22.50
2022-08-14T20:49:11.995Z,22.50
2022-08-14T20:51:59.033Z,22.50
2022-08-14T20:54:34.531Z,22.50
2022-08-14T20:57:08.435Z,22.40
2022-08-14T20:59:43.458Z,22.40
2022-08-14T21:02:38.543Z,22.30
2022-08-14T21:05:16.429Z,22.30
2022-08-14T21:07:50.702Z,22.30
2022-08-14T21:10:35.791Z,22.20
2022-08-14T21:14:08.694Z,22.20
2022-08-14T21:16:03.550Z,22.10
2022-08-14T21:18:35.259Z,22.10
2022-08-14T21:21:18.399Z,22.00
2022-08-14T21:23:55.813Z,22.00
2022-08-14T21:26:50.927Z,22.00
2022-08-14T21:29:20.916Z,21.90
2022-08-14T21:31:55.359Z,21.90
2022-08-14T21:34:31.248Z,21.70
2022-08-14T21:37:08.973Z,21.70
2022-08-14T21:39:37.874Z,21.60
2022-08-14T21:42:06.284Z,21.50
2022-08-14T21:44:42.962Z,21.50
2022-08-14T21:47:16.586Z,21.40
2022-08-14T21:49:46.180Z,21.40
2022-08-14T21:52:51.454Z,21.40
2022-08-14T21:55:12.426Z,21.60
2022-08-14T21:57:56.323Z,21.50
2022-08-14T22:00:39.694Z,21.30
2022-08-14T22:03:16.565Z,21.30
2022-08-14T22:05:46.359Z,21.30
2022-08-14T22:08:13.863Z,21.20
2022-08-14T22:10:44.864Z,21.20
2022-08-14T22:13:16.810Z,21.00
2022-08-14T22:15:49.484Z,21.00
2022-08-14T22:18:20.323Z,21.10
2022-08-14T22:20:53.852Z,21.10
2022-08-14T22:23:22.928Z,21.20
2022-08-14T22:25:51.234Z,21.20
2022-08-14T22:28:32.862Z,21.10
2022-08-14T22:31:10.416Z,20.80
2022-08-14T22:33:39.478Z,20.80
2022-08-14T22:36:26.412Z,20.70
2022-08-14T22:38:54.567Z,20.70
2022-08-14T22:41:29.150Z,20.80
2022-08-14T22:44:06.548Z,20.70
2022-08-14T22:46:33.737Z,20.70
2022-08-14T22:49:16.677Z,20.60
2022-08-14T22:51:49.244Z,20.60
2022-08-14T22:54:52.179Z,20.70
2022-08-14T22:57:06.207Z,20.60
2022-08-14T22:59:38.978Z,20.60
2022-08-14T23:02:12.809Z,20.50
2022-08-14T23:04:54.058Z,20.40
2022-08-14T23:07:24.087Z,20.30
2022-08-14T23:09:57.668Z,20.30
2022-08-14T23:12:54.810Z,20.30
2022-08-14T23:15:24.133Z,20.30
2022-08-14T23:17:55.911Z,20.30
2022-08-14T23:20:23.602Z,20.30
2022-08-14T23:22:57.784Z,20.30
2022-08-14T23:25:56.903Z,20.30
2022-08-14T23:28:34.157Z,20.20
2022-08-14T23:31:08.235Z,20.20
2022-08-14T23:33:45.837Z,20.20
2022-08-14T23:36:32.832Z,20.20
2022-08-14T23:39:02.135Z,20.10
2022-08-14T23:41:46.565Z,19.90
2022-08-14T23:44:22.511Z,19.80
2022-08-14T23:46:56.903Z,19.70
2022-08-14T23:50:01.297Z,19.60
2022-08-14T23:52:55.558Z,19.60
2022-08-14T23:55:06.248Z,19.70
2022-08-14T23:57:44.067Z,19.60
